createdAt,value
2023-04-15T00:01:45.538Z,17.70
2023-04-15T00:11:52.484Z,17.73
2023-04-15T00:21:58.977Z,17.73
2023-04-15T00:32:05.237Z,17.73
2023-04-15T00:42:11.831Z,17.76
2023-04-15T00:52:18.595Z,17.78
2023-04-15T01:02:25.294Z,17.78
2023-04-15T01:12:32.006Z,17.78
2023-04-15T01:22:38.804Z,17.84
2023-04-15T01:32:45.678Z,17.85
2023-04-15T01:42:52.303Z,17.85
2023-04-15T01:52:58.596Z,17.84
2023-04-15T02:03:05.504Z,17.85
2023-04-15T02:13:12.253Z,17.89
2023-04-15T02:23:18.764Z,17.89
2023-04-15T02:33:25.370Z,17.92
2023-04-15T02:43:31.957Z,17.92
2023-04-15T02:53:38.145Z,17.95
2023-04-15T03:03:45.116Z,18.02
2023-04-15T03:13:51.880Z,18.02
2023-04-15T03:23:58.216Z,18.00
2023-04-15T03:34:04.387Z,18.09
2023-04-15T03:44:10.763Z,18.09
2023-04-15T03:54:17.650Z,18.13
2023-04-15T04:04:24.529Z,18.17
2023-04-15T04:14:31.452Z,18.18
2023-04-15T04:24:37.506Z,18.18
2023-04-15T04:34:44.076Z,18.17
2023-04-15T04:44:50.463Z,18.16
2023-04-15T04:54:56.736Z,18.16
2023-04-15T05:05:03.750Z,18.16
2023-04-15T05:15:10.061Z,18.16
2023-04-15T05:25:16.660Z,18.13
2023-04-15T05:35:22.870Z,18.13
2023-04-15T05:45:29.551Z,18.16
2023-04-15T05:55:36.341Z,18.18
2023-04-15T06:05:42.748Z,18.17
2023-04-15T06:15:49.401Z,18.21
2023-04-15T06:25:56.010Z,18.21
2023-04-15T06:36:02.298Z,18.20
2023-04-15T06:46:08.852Z,18.21
2023-04-15T06:56:15.742Z,18.23
2023-04-15T07:06:22.165Z,18.17
2023-04-15T07:16:29.880Z,14.91
2023-04-15T07:26:34.829Z,14.91
2023-04-15T07:36:40.861Z,13.35
2023-04-15T07:46:47.277Z,12.38
2023-04-15T07:56:54.255Z,13.95
2023-04-15T08:07:01.884Z,15.14
2023-04-15T08:17:08.787Z,15.70
2023-04-15T08:27:15.734Z,16.24
2023-04-15T08:37:22.598Z,16.66
2023-04-15T08:47:29.763Z,16.93
2023-04-15T08:57:36.656Z,16.93
2023-04-15T09:07:43.158Z,17.23
2023-04-15T09:17:49.898Z,17.40
2023-04-15T09:27:56.519Z,17.56
2023-04-15T09:38:03.088Z,17.59
2023-04-15T09:48:09.599Z,17.60
2023-04-15T09:58:15.845Z,17.60
2023-04-15T10:08:22.551Z,17.66
2023-04-15T10:18:28.800Z,17.70
2023-04-15T10:28:35.100Z,17.70
2023-04-15T10:38:41.587Z,17.75
2023-04-15T10:48:47.861Z,17.78
2023-04-15T10:58:54.253Z,17.82
2023-04-15T11:09:00.227Z,17.82
2023-04-15T11:19:07.195Z,17.86
2023-04-15T11:29:13.411Z,17.90
2023-04-15T11:39:19.647Z,17.92
2023-04-15T11:49:25.495Z,17.92
2023-04-15T11:59:44.546Z,18.02
2023-04-15T12:09:43.117Z,18.02
2023-04-15T12:19:49.228Z,18.03
2023-04-15T12:29:55.263Z,18.03
2023-04-15T12:40:01.500Z,18.05
2023-04-15T12:50:07.265Z,18.05
2023-04-15T13:00:13.058Z,18.07
2023-04-15T13:10:18.920Z,18.07
2023-04-15T13:20:24.866Z,18.09
2023-04-15T13:30:31.374Z,18.09
2023-04-15T13:40:37.352Z,18.10
2023-04-15T13:50:43.720Z,18.14
2023-04-15T14:00:49.989Z,18.18
2023-04-15T14:10:56.316Z,18.20
2023-04-15T14:21:02.792Z,18.20
2023-04-15T14:31:08.988Z,18.22
2023-04-15T14:41:15.425Z,18.22
2023-04-15T14:51:21.069Z,18.22
2023-04-15T15:01:27.017Z,18.22
2023-04-15T15:11:33.297Z,18.25
2023-04-15T15:21:39.662Z,18.26
2023-04-15T15:31:45.692Z,18.25
2023-04-15T15:41:52.162Z,18.25
2023-04-15T15:51:58.844Z,18.25
2023-04-15T16:02:05.247Z,18.25
2023-04-15T16:12:11.288Z,18.25
2023-04-15T16:22:17.311Z,18.27
2023-04-15T16:32:23.064Z,18.27
2023-04-15T16:42:29.028Z,18.26
2023-04-15T16:52:35.002Z,18.28
2023-04-15T17:02:41.116Z,18.28
2023-04-15T17:12:47.415Z,18.28
2023-04-15T17:22:53.322Z,18.32
2023-04-15T17:33:01.601Z,18.32
2023-04-15T17:43:07.894Z,18.32
2023-04-15T17:53:13.769Z,18.32
2023-04-15T18:03:20.024Z,18.34
2023-04-15T18:13:25.842Z,18.32
2023-04-15T18:23:31.756Z,18.32
2023-04-15T18:33:37.584Z,18.32
2023-04-15T18:43:43.857Z,18.35
2023-04-15T18:53:49.910Z,18.35
2023-04-15T19:03:56.435Z,18.36
2023-04-15T19:14:02.557Z,18.36
2023-04-15T19:24:08.391Z,18.36
2023-04-15T19:34:14.864Z,18.35
2023-04-15T19:44:21.088Z,18.36
2023-04-15T19:54:27.161Z,18.36
2023-04-15T20:04:33.353Z,18.35
2023-04-15T20:14:39.394Z,18.36
2023-04-15T20:24:45.612Z,18.36
2023-04-15T20:34:51.274Z,18.36
2023-04-15T20:44:57.370Z,18.34
2023-04-15T20:55:03.302Z,18.35
2023-04-15T21:05:09.048Z,18.36
2023-04-15T21:15:15.016Z,18.39
2023-04-15T21:25:20.753Z,18.40
2023-04-15T21:35:26.960Z,18.40
2023-04-15T21:45:33.057Z,18.40
2023-04-15T21:55:39.332Z,18.44
2023-04-15T22:05:45.486Z,18.44
2023-04-15T22:15:51.554Z,18.48
2023-04-15T22:25:57.930Z,18.42
2023-04-15T22:36:04.035Z,18.02
2023-04-15T22:46:09.948Z,18.02
2023-04-15T22:56:15.899Z,17.78
2023-04-15T23:06:22.296Z,17.50
2023-04-15T23:16:28.838Z,17.37
2023-04-15T23:26:35.027Z,17.28
2023-04-15T23:36:41.170Z,17.28
2023-04-15T23:46:46.861Z,17.24
2023-04-15T23:56:52.695Z,17.17
